sensor_id;sensor_type;location;lat;lon;timestamp;P1;durP1;ratioP1;P2;durP2;ratioP2
60819;SDS011;46641;48.904;9.126;2023-04-06T00:02:01;12.30;;;11.10;;
60819;SDS011;46641;48.904;9.126;2023-04-06T00:06:51;12.57;;;11.33;;
60819;SDS011;46641;48.904;9.126;2023-04-06T00:11:42;12.90;;;10.23;;
60819;SDS011;46641;48.904;9.126;2023-04-06T00:16:32;11.70;;;10.60;;
60819;SDS011;46641;48.904;9.126;2023-04-06T00:21:23;11.47;;;10.27;;
60819;SDS011;46641;48.904;9.126;2023-04-06T00:26:13;11.33;;;10.20;;
60819;SDS011;46641;48.904;9.126;2023-04-06T00:31:04;10.70;;;9.47;;
60819;SDS011;46641;48.904;9.126;2023-04-06T00:35:54;12.18;;;10.57;;
60819;SDS011;46641;48.904;9.126;2023-04-06T00:40:44;13.07;;;9.50;;
60819;SDS011;46641;48.904;9.126;2023-04-06T00:45:34;12.33;;;9.70;;
60819;SDS011;46641;48.904;9.126;2023-04-06T00:50:25;10.77;;;9.70;;
60819;SDS011;46641;48.904;9.126;2023-04-06T00:55:17;11.03;;;9.97;;
60819;SDS011;46641;48.904;9.126;2023-04-06T01:00:07;10.47;;;9.37;;
60819;SDS011;46641;48.904;9.126;2023-04-06T01:04:58;10.70;;;9.10;;
60819;SDS011;46641;48.904;9.126;2023-04-06T01:09:48;9.57;;;8.67;;
60819;SDS011;46641;48.904;9.126;2023-04-06T01:14:38;10.65;;;9.20;;
60819;SDS011;46641;48.904;9.126;2023-04-06T01:19:29;9.33;;;8.40;;
60819;SDS011;46641;48.904;9.126;2023-04-06T01:24:19;8.30;;;7.40;;
60819;SDS011;46641;48.904;9.126;2023-04-06T01:29:10;10.30;;;8.83;;
60819;SDS011;46641;48.904;9.126;2023-04-06T01:34:01;8.47;;;7.67;;
60819;SDS011;46641;48.904;9.126;2023-04-06T01:38:51;9.37;;;7.87;;
60819;SDS011;46641;48.904;9.126;2023-04-06T01:43:41;9.43;;;8.40;;
60819;SDS011;46641;48.904;9.126;2023-04-06T01:48:32;9.40;;;7.68;;
60819;SDS011;46641;48.904;9.126;2023-04-06T01:53:22;8.47;;;7.70;;
60819;SDS011;46641;48.904;9.126;2023-04-06T01:58:12;8.77;;;7.87;;
60819;SDS011;46641;48.904;9.126;2023-04-06T02:03:03;8.83;;;7.73;;
60819;SDS011;46641;48.904;9.126;2023-04-06T02:07:54;8.10;;;7.30;;
60819;SDS011;46641;48.904;9.126;2023-04-06T02:12:44;8.97;;;7.60;;
60819;SDS011;46641;48.904;9.126;2023-04-06T02:17:34;9.07;;;8.23;;
60819;SDS011;46641;48.904;9.126;2023-04-06T02:22:25;8.53;;;7.53;;
60819;SDS011;46641;48.904;9.126;2023-04-06T02:27:15;10.82;;;8.63;;
60819;SDS011;46641;48.904;9.126;2023-04-06T02:32:05;9.50;;;7.93;;
60819;SDS011;46641;48.904;9.126;2023-04-06T02:36:56;8.83;;;7.47;;
60819;SDS011;46641;48.904;9.126;2023-04-06T02:41:46;9.00;;;7.63;;
60819;SDS011;46641;48.904;9.126;2023-04-06T02:46:36;6.73;;;6.13;;
60819;SDS011;46641;48.904;9.126;2023-04-06T02:51:27;8.40;;;7.57;;
60819;SDS011;46641;48.904;9.126;2023-04-06T02:56:18;6.93;;;6.33;;
60819;SDS011;46641;48.904;9.126;2023-04-06T03:01:08;8.30;;;7.50;;
60819;SDS011;46641;48.904;9.126;2023-04-06T03:05:58;8.67;;;7.67;;
60819;SDS011;46641;48.904;9.126;2023-04-06T03:10:50;8.37;;;7.50;;
60819;SDS011;46641;48.904;9.126;2023-04-06T03:15:40;7.10;;;6.40;;
60819;SDS011;46641;48.904;9.126;2023-04-06T03:20:30;7.87;;;7.17;;
60819;SDS011;46641;48.904;9.126;2023-04-06T03:25:21;8.77;;;7.87;;
60819;SDS011;46641;48.904;9.126;2023-04-06T03:30:11;9.30;;;7.53;;
60819;SDS011;46641;48.904;9.126;2023-04-06T03:35:01;8.50;;;7.63;;
60819;SDS011;46641;48.904;9.126;2023-04-06T03:39:52;9.87;;;7.77;;
60819;SDS011;46641;48.904;9.126;2023-04-06T03:44:42;7.43;;;6.73;;
60819;SDS011;46641;48.904;9.126;2023-04-06T03:49:32;8.05;;;6.43;;
60819;SDS011;46641;48.904;9.126;2023-04-06T03:54:23;7.83;;;7.00;;
60819;SDS011;46641;48.904;9.126;2023-04-06T03:59:13;9.07;;;7.30;;
60819;SDS011;46641;48.904;9.126;2023-04-06T04:04:03;8.60;;;7.47;;
60819;SDS011;46641;48.904;9.126;2023-04-06T04:08:54;8.27;;;7.00;;
60819;SDS011;46641;48.904;9.126;2023-04-06T04:13:44;12.18;;;8.45;;
60819;SDS011;46641;48.904;9.126;2023-04-06T04:18:35;9.97;;;7.27;;
60819;SDS011;46641;48.904;9.126;2023-04-06T04:23:26;10.47;;;7.50;;
60819;SDS011;46641;48.904;9.126;2023-04-06T04:28:16;9.13;;;8.23;;
60819;SDS011;46641;48.904;9.126;2023-04-06T04:33:07;8.07;;;7.27;;
60819;SDS011;46641;48.904;9.126;2023-04-06T04:37:57;8.35;;;7.57;;
60819;SDS011;46641;48.904;9.126;2023-04-06T04:42:48;8.10;;;7.30;;
60819;SDS011;46641;48.904;9.126;2023-04-06T04:47:40;9.20;;;7.63;;
60819;SDS011;46641;48.904;9.126;2023-04-06T04:52:31;8.53;;;7.63;;
60819;SDS011;46641;48.904;9.126;2023-04-06T04:57:21;11.37;;;10.23;;
60819;SDS011;46641;48.904;9.126;2023-04-06T05:02:11;10.27;;;8.67;;
60819;SDS011;46641;48.904;9.126;2023-04-06T05:07:03;8.77;;;7.53;;
60819;SDS011;46641;48.904;9.126;2023-04-06T05:11:54;8.63;;;7.83;;
60819;SDS011;46641;48.904;9.126;2023-04-06T05:16:45;8.60;;;7.70;;
60819;SDS011;46641;48.904;9.126;2023-04-06T05:21:35;8.93;;;8.03;;
60819;SDS011;46641;48.904;9.126;2023-04-06T05:26:25;8.67;;;7.73;;
60819;SDS011;46641;48.904;9.126;2023-04-06T05:31:16;11.30;;;7.40;;
60819;SDS011;46641;48.904;9.126;2023-04-06T05:36:06;9.20;;;7.37;;
60819;SDS011;46641;48.904;9.126;2023-04-06T05:40:57;11.27;;;8.23;;
60819;SDS011;46641;48.904;9.126;2023-04-06T05:45:47;10.07;;;8.83;;
60819;SDS011;46641;48.904;9.126;2023-04-06T05:50:37;9.57;;;8.57;;
60819;SDS011;46641;48.904;9.126;2023-04-06T05:55:28;11.20;;;9.53;;
60819;SDS011;46641;48.904;9.126;2023-04-06T06:00:18;9.30;;;8.23;;
60819;SDS011;46641;48.904;9.126;2023-04-06T06:05:09;11.80;;;9.40;;
60819;SDS011;46641;48.904;9.126;2023-04-06T06:10:00;11.70;;;9.33;;
60819;SDS011;46641;48.904;9.126;2023-04-06T06:14:50;11.73;;;9.30;;
60819;SDS011;46641;48.904;9.126;2023-04-06T06:19:41;10.50;;;9.00;;
60819;SDS011;46641;48.904;9.126;2023-04-06T06:24:31;13.33;;;9.37;;
60819;SDS011;46641;48.904;9.126;2023-04-06T06:29:22;11.47;;;9.40;;
60819;SDS011;46641;48.904;9.126;2023-04-06T06:34:13;14.00;;;10.03;;
60819;SDS011;46641;48.904;9.126;2023-04-06T06:39:04;11.63;;;9.23;;
60819;SDS011;46641;48.904;9.126;2023-04-06T06:43:54;15.33;;;10.70;;
60819;SDS011;46641;48.904;9.126;2023-04-06T06:48:44;12.57;;;10.83;;
60819;SDS011;46641;48.904;9.126;2023-04-06T06:53:35;12.33;;;10.23;;
60819;SDS011;46641;48.904;9.126;2023-04-06T06:58:25;12.93;;;9.53;;
60819;SDS011;46641;48.904;9.126;2023-04-06T07:03:15;12.47;;;11.10;;
60819;SDS011;46641;48.904;9.126;2023-04-06T07:08:06;14.03;;;11.07;;
60819;SDS011;46641;48.904;9.126;2023-04-06T07:12:56;14.10;;;10.30;;
60819;SDS011;46641;48.904;9.126;2023-04-06T07:17:46;12.80;;;10.33;;
60819;SDS011;46641;48.904;9.126;2023-04-06T07:22:37;13.33;;;11.23;;
60819;SDS011;46641;48.904;9.126;2023-04-06T07:27:28;14.47;;;10.33;;
60819;SDS011;46641;48.904;9.126;2023-04-06T07:32:18;11.05;;;9.80;;
60819;SDS011;46641;48.904;9.126;2023-04-06T07:37:09;11.03;;;8.77;;
60819;SDS011;46641;48.904;9.126;2023-04-06T07:41:59;13.80;;;10.97;;
60819;SDS011;46641;48.904;9.126;2023-04-06T07:46:50;11.83;;;10.63;;
60819;SDS011;46641;48.904;9.126;2023-04-06T07:51:40;13.30;;;10.50;;
60819;SDS011;46641;48.904;9.126;2023-04-06T07:56:30;11.90;;;9.83;;
60819;SDS011;46641;48.904;9.126;2023-04-06T08:01:21;12.13;;;10.57;;
60819;SDS011;46641;48.904;9.126;2023-04-06T08:06:11;13.30;;;9.47;;
60819;SDS011;46641;48.904;9.126;2023-04-06T08:11:01;10.83;;;9.40;;
60819;SDS011;46641;48.904;9.126;2023-04-06T08:15:52;10.63;;;8.97;;
60819;SDS011;46641;48.904;9.126;2023-04-06T08:20:43;12.90;;;10.10;;
60819;SDS011;46641;48.904;9.126;2023-04-06T08:25:34;11.07;;;9.90;;
60819;SDS011;46641;48.904;9.126;2023-04-06T08:30:25;12.37;;;11.07;;
60819;SDS011;46641;48.904;9.126;2023-04-06T08:35:16;10.17;;;9.17;;
60819;SDS011;46641;48.904;9.126;2023-04-06T08:40:07;10.63;;;9.03;;
60819;SDS011;46641;48.904;9.126;2023-04-06T08:44:57;10.50;;;9.13;;
60819;SDS011;46641;48.904;9.126;2023-04-06T08:49:48;12.43;;;8.87;;
60819;SDS011;46641;48.904;9.126;2023-04-06T08:54:39;10.57;;;9.47;;
60819;SDS011;46641;48.904;9.126;2023-04-06T08:59:29;11.73;;;9.97;;
60819;SDS011;46641;48.904;9.126;2023-04-06T09:04:20;10.73;;;9.63;;
60819;SDS011;46641;48.904;9.126;2023-04-06T09:09:11;13.77;;;9.43;;
60819;SDS011;46641;48.904;9.126;2023-04-06T09:14:01;10.40;;;9.03;;
60819;SDS011;46641;48.904;9.126;2023-04-06T09:18:52;9.93;;;8.60;;
60819;SDS011;46641;48.904;9.126;2023-04-06T09:23:42;10.40;;;8.03;;
60819;SDS011;46641;48.904;9.126;2023-04-06T09:28:49;8.63;;;6.20;;
60819;SDS011;46641;48.904;9.126;2023-04-06T09:33:46;9.63;;;8.40;;
60819;SDS011;46641;48.904;9.126;2023-04-06T09:38:37;12.17;;;10.23;;
60819;SDS011;46641;48.904;9.126;2023-04-06T09:43:28;9.73;;;8.57;;
60819;SDS011;46641;48.904;9.126;2023-04-06T09:48:19;10.23;;;8.47;;
60819;SDS011;46641;48.904;9.126;2023-04-06T09:53:11;9.60;;;7.40;;
60819;SDS011;46641;48.904;9.126;2023-04-06T09:58:05;9.47;;;7.07;;
60819;SDS011;46641;48.904;9.126;2023-04-06T10:03:01;6.07;;;5.47;;
60819;SDS011;46641;48.904;9.126;2023-04-06T10:08:02;7.37;;;6.50;;
60819;SDS011;46641;48.904;9.126;2023-04-06T10:12:57;10.67;;;7.20;;
60819;SDS011;46641;48.904;9.126;2023-04-06T10:17:48;9.40;;;7.63;;
60819;SDS011;46641;48.904;9.126;2023-04-06T10:27:47;9.43;;;7.17;;
60819;SDS011;46641;48.904;9.126;2023-04-06T10:32:48;8.93;;;6.23;;
60819;SDS011;46641;48.904;9.126;2023-04-06T10:37:52;10.03;;;8.63;;
60819;SDS011;46641;48.904;9.126;2023-04-06T10:42:55;8.70;;;7.83;;
60819;SDS011;46641;48.904;9.126;2023-04-06T10:47:46;5.97;;;5.40;;
60819;SDS011;46641;48.904;9.126;2023-04-06T10:52:37;10.13;;;9.10;;
60819;SDS011;46641;48.904;9.126;2023-04-06T10:57:28;10.60;;;8.97;;
60819;SDS011;46641;48.904;9.126;2023-04-06T11:02:19;9.70;;;8.70;;
60819;SDS011;46641;48.904;9.126;2023-04-06T11:07:11;9.63;;;7.77;;
60819;SDS011;46641;48.904;9.126;2023-04-06T11:12:24;9.00;;;6.97;;
60819;SDS011;46641;48.904;9.126;2023-04-06T11:17:16;10.33;;;8.73;;
60819;SDS011;46641;48.904;9.126;2023-04-06T11:22:07;10.30;;;9.20;;
60819;SDS011;46641;48.904;9.126;2023-04-06T11:26:58;7.43;;;6.30;;
60819;SDS011;46641;48.904;9.126;2023-04-06T11:31:52;8.80;;;7.83;;
60819;SDS011;46641;48.904;9.126;2023-04-06T11:36:44;7.93;;;7.13;;
60819;SDS011;46641;48.904;9.126;2023-04-06T11:41:35;9.90;;;8.87;;
60819;SDS011;46641;48.904;9.126;2023-04-06T11:46:27;9.07;;;8.17;;
60819;SDS011;46641;48.904;9.126;2023-04-06T11:51:23;9.00;;;7.97;;
60819;SDS011;46641;48.904;9.126;2023-04-06T11:56:23;6.27;;;5.67;;
60819;SDS011;46641;48.904;9.126;2023-04-06T12:01:18;9.63;;;6.90;;
60819;SDS011;46641;48.904;9.126;2023-04-06T12:06:08;9.00;;;7.57;;
60819;SDS011;46641;48.904;9.126;2023-04-06T12:10:58;7.50;;;6.77;;
60819;SDS011;46641;48.904;9.126;2023-04-06T12:15:49;7.53;;;6.80;;
60819;SDS011;46641;48.904;9.126;2023-04-06T12:20:39;7.73;;;7.03;;
60819;SDS011;46641;48.904;9.126;2023-04-06T12:25:30;8.50;;;7.70;;
60819;SDS011;46641;48.904;9.126;2023-04-06T12:30:20;8.03;;;7.23;;
60819;SDS011;46641;48.904;9.126;2023-04-06T12:35:11;8.30;;;7.47;;
60819;SDS011;46641;48.904;9.126;2023-04-06T12:40:03;9.67;;;8.00;;
60819;SDS011;46641;48.904;9.126;2023-04-06T12:44:54;8.57;;;7.67;;
60819;SDS011;46641;48.904;9.126;2023-04-06T12:49:44;8.00;;;5.83;;
60819;SDS011;46641;48.904;9.126;2023-04-06T12:54:35;7.00;;;6.27;;
60819;SDS011;46641;48.904;9.126;2023-04-06T12:59:25;8.48;;;7.55;;
60819;SDS011;46641;48.904;9.126;2023-04-06T13:04:16;9.77;;;8.00;;
60819;SDS011;46641;48.904;9.126;2023-04-06T13:09:06;7.80;;;7.10;;
60819;SDS011;46641;48.904;9.126;2023-04-06T13:13:57;7.10;;;6.30;;
60819;SDS011;46641;48.904;9.126;2023-04-06T13:18:48;7.33;;;5.63;;
60819;SDS011;46641;48.904;9.126;2023-04-06T13:23:38;7.32;;;6.63;;
60819;SDS011;46641;48.904;9.126;2023-04-06T13:28:30;8.53;;;7.53;;
60819;SDS011;46641;48.904;9.126;2023-04-06T13:33:22;8.87;;;6.90;;
60819;SDS011;46641;48.904;9.126;2023-04-06T13:38:12;7.10;;;6.40;;
60819;SDS011;46641;48.904;9.126;2023-04-06T13:43:03;8.03;;;6.90;;
60819;SDS011;46641;48.904;9.126;2023-04-06T13:47:54;6.00;;;5.40;;
60819;SDS011;46641;48.904;9.126;2023-04-06T13:52:44;7.10;;;6.50;;
60819;SDS011;46641;48.904;9.126;2023-04-06T13:57:35;7.80;;;6.57;;
60819;SDS011;46641;48.904;9.126;2023-04-06T14:02:26;8.60;;;7.27;;
60819;SDS011;46641;48.904;9.126;2023-04-06T14:07:17;10.80;;;8.37;;
60819;SDS011;46641;48.904;9.126;2023-04-06T14:12:07;8.85;;;7.93;;
60819;SDS011;46641;48.904;9.126;2023-04-06T14:16:57;10.23;;;7.70;;
60819;SDS011;46641;48.904;9.126;2023-04-06T14:21:47;9.87;;;7.60;;
60819;SDS011;46641;48.904;9.126;2023-04-06T14:26:38;8.10;;;7.30;;
60819;SDS011;46641;48.904;9.126;2023-04-06T14:31:32;8.87;;;7.63;;
60819;SDS011;46641;48.904;9.126;2023-04-06T14:36:23;7.57;;;5.60;;
60819;SDS011;46641;48.904;9.126;2023-04-06T14:41:17;8.97;;;7.40;;
60819;SDS011;46641;48.904;9.126;2023-04-06T14:46:09;9.07;;;8.07;;
60819;SDS011;46641;48.904;9.126;2023-04-06T14:50:59;9.57;;;8.23;;
60819;SDS011;46641;48.904;9.126;2023-04-06T14:55:50;10.13;;;8.03;;
60819;SDS011;46641;48.904;9.126;2023-04-06T15:00:41;8.37;;;7.40;;
60819;SDS011;46641;48.904;9.126;2023-04-06T15:05:33;9.07;;;7.50;;
60819;SDS011;46641;48.904;9.126;2023-04-06T15:10:24;9.10;;;7.80;;
60819;SDS011;46641;48.904;9.126;2023-04-06T15:15:14;9.20;;;7.80;;
60819;SDS011;46641;48.904;9.126;2023-04-06T15:20:05;7.83;;;7.03;;
60819;SDS011;46641;48.904;9.126;2023-04-06T15:24:55;8.33;;;7.53;;
60819;SDS011;46641;48.904;9.126;2023-04-06T15:29:46;11.25;;;7.70;;
60819;SDS011;46641;48.904;9.126;2023-04-06T15:34:36;8.50;;;7.60;;
60819;SDS011;46641;48.904;9.126;2023-04-06T15:39:26;9.13;;;8.17;;
60819;SDS011;46641;48.904;9.126;2023-04-06T15:44:18;11.73;;;8.80;;
60819;SDS011;46641;48.904;9.126;2023-04-06T15:49:09;7.93;;;7.07;;
60819;SDS011;46641;48.904;9.126;2023-04-06T15:53:59;9.27;;;7.27;;
60819;SDS011;46641;48.904;9.126;2023-04-06T15:58:49;8.83;;;7.93;;
60819;SDS011;46641;48.904;9.126;2023-04-06T16:03:40;9.70;;;7.80;;
60819;SDS011;46641;48.904;9.126;2023-04-06T16:08:30;9.50;;;8.20;;
60819;SDS011;46641;48.904;9.126;2023-04-06T16:13:20;7.60;;;6.90;;
60819;SDS011;46641;48.904;9.126;2023-04-06T16:18:11;9.25;;;7.63;;
60819;SDS011;46641;48.904;9.126;2023-04-06T16:23:01;9.07;;;7.57;;
60819;SDS011;46641;48.904;9.126;2023-04-06T16:27:51;9.07;;;7.68;;
60819;SDS011;46641;48.904;9.126;2023-04-06T16:32:41;7.80;;;6.73;;
60819;SDS011;46641;48.904;9.126;2023-04-06T16:37:33;11.03;;;7.43;;
60819;SDS011;46641;48.904;9.126;2023-04-06T16:42:24;7.47;;;6.47;;
60819;SDS011;46641;48.904;9.126;2023-04-06T16:47:15;8.57;;;7.10;;
60819;SDS011;46641;48.904;9.126;2023-04-06T16:52:06;6.30;;;5.50;;
60819;SDS011;46641;48.904;9.126;2023-04-06T16:56:56;7.57;;;5.37;;
60819;SDS011;46641;48.904;9.126;2023-04-06T17:01:47;6.93;;;5.37;;
60819;SDS011;46641;48.904;9.126;2023-04-06T17:06:37;10.95;;;6.05;;
60819;SDS011;46641;48.904;9.126;2023-04-06T17:11:27;5.53;;;4.75;;
60819;SDS011;46641;48.904;9.126;2023-04-06T17:16:17;5.80;;;5.20;;
60819;SDS011;46641;48.904;9.126;2023-04-06T17:21:09;6.63;;;4.40;;
60819;SDS011;46641;48.904;9.126;2023-04-06T17:26:04;5.77;;;4.77;;
60819;SDS011;46641;48.904;9.126;2023-04-06T17:30:55;5.47;;;4.83;;
60819;SDS011;46641;48.904;9.126;2023-04-06T17:35:46;6.73;;;4.57;;
60819;SDS011;46641;48.904;9.126;2023-04-06T17:40:37;6.63;;;4.90;;
60819;SDS011;46641;48.904;9.126;2023-04-06T17:45:27;6.70;;;5.20;;
60819;SDS011;46641;48.904;9.126;2023-04-06T17:50:17;8.75;;;5.55;;
60819;SDS011;46641;48.904;9.126;2023-04-06T17:55:08;6.32;;;4.82;;
60819;SDS011;46641;48.904;9.126;2023-04-06T17:59:58;7.63;;;5.03;;
60819;SDS011;46641;48.904;9.126;2023-04-06T18:04:51;6.60;;;5.00;;
60819;SDS011;46641;48.904;9.126;2023-04-06T18:09:42;7.57;;;5.70;;
60819;SDS011;46641;48.904;9.126;2023-04-06T18:14:32;7.70;;;5.72;;
60819;SDS011;46641;48.904;9.126;2023-04-06T18:19:22;6.40;;;5.33;;
60819;SDS011;46641;48.904;9.126;2023-04-06T18:24:13;8.68;;;5.93;;
60819;SDS011;46641;48.904;9.126;2023-04-06T18:29:03;7.50;;;6.00;;
60819;SDS011;46641;48.904;9.126;2023-04-06T18:33:53;8.50;;;6.17;;
60819;SDS011;46641;48.904;9.126;2023-04-06T18:38:45;8.73;;;6.30;;
60819;SDS011;46641;48.904;9.126;2023-04-06T18:43:36;8.87;;;5.80;;
60819;SDS011;46641;48.904;9.126;2023-04-06T18:48:27;8.20;;;5.80;;
60819;SDS011;46641;48.904;9.126;2023-04-06T18:53:17;7.90;;;5.80;;
60819;SDS011;46641;48.904;9.126;2023-04-06T18:58:07;11.32;;;7.95;;
60819;SDS011;46641;48.904;9.126;2023-04-06T19:02:58;10.23;;;6.27;;
60819;SDS011;46641;48.904;9.126;2023-04-06T19:07:48;9.10;;;6.73;;
60819;SDS011;46641;48.904;9.126;2023-04-06T19:12:41;7.17;;;5.77;;
60819;SDS011;46641;48.904;9.126;2023-04-06T19:17:31;6.70;;;6.03;;
60819;SDS011;46641;48.904;9.126;2023-04-06T19:22:21;7.00;;;5.30;;
60819;SDS011;46641;48.904;9.126;2023-04-06T19:27:12;6.63;;;4.57;;
60819;SDS011;46641;48.904;9.126;2023-04-06T19:32:03;4.20;;;3.50;;
60819;SDS011;46641;48.904;9.126;2023-04-06T19:36:55;3.40;;;3.10;;
60819;SDS011;46641;48.904;9.126;2023-04-06T19:41:46;4.00;;;3.60;;
60819;SDS011;46641;48.904;9.126;2023-04-06T19:46:36;4.67;;;3.90;;
60819;SDS011;46641;48.904;9.126;2023-04-06T19:51:30;4.33;;;3.93;;
60819;SDS011;46641;48.904;9.126;2023-04-06T19:56:24;3.37;;;3.03;;
60819;SDS011;46641;48.904;9.126;2023-04-06T20:01:14;3.67;;;3.00;;
60819;SDS011;46641;48.904;9.126;2023-04-06T20:06:05;2.85;;;2.55;;
60819;SDS011;46641;48.904;9.126;2023-04-06T20:11:04;4.27;;;3.73;;
60819;SDS011;46641;48.904;9.126;2023-04-06T20:15:56;4.73;;;3.20;;
60819;SDS011;46641;48.904;9.126;2023-04-06T20:20:47;2.27;;;2.07;;
60819;SDS011;46641;48.904;9.126;2023-04-06T20:25:38;3.50;;;2.13;;
60819;SDS011;46641;48.904;9.126;2023-04-06T20:30:28;2.40;;;2.03;;
60819;SDS011;46641;48.904;9.126;2023-04-06T20:35:19;1.80;;;1.70;;
60819;SDS011;46641;48.904;9.126;2023-04-06T20:40:09;4.87;;;3.20;;
60819;SDS011;46641;48.904;9.126;2023-04-06T20:45:01;3.80;;;3.50;;
60819;SDS011;46641;48.904;9.126;2023-04-06T20:49:52;2.90;;;2.70;;
60819;SDS011;46641;48.904;9.126;2023-04-06T20:54:42;2.67;;;2.47;;
60819;SDS011;46641;48.904;9.126;2023-04-06T20:59:33;2.50;;;2.30;;
60819;SDS011;46641;48.904;9.126;2023-04-06T21:04:23;3.97;;;2.90;;
60819;SDS011;46641;48.904;9.126;2023-04-06T21:09:14;3.63;;;2.53;;
60819;SDS011;46641;48.904;9.126;2023-04-06T21:14:04;3.73;;;3.43;;
60819;SDS011;46641;48.904;9.126;2023-04-06T21:18:55;3.90;;;3.53;;
60819;SDS011;46641;48.904;9.126;2023-04-06T21:23:45;4.90;;;3.80;;
60819;SDS011;46641;48.904;9.126;2023-04-06T21:28:35;4.07;;;3.77;;
60819;SDS011;46641;48.904;9.126;2023-04-06T21:33:26;5.13;;;4.60;;
60819;SDS011;46641;48.904;9.126;2023-04-06T21:38:16;4.57;;;4.17;;
60819;SDS011;46641;48.904;9.126;2023-04-06T21:43:06;3.33;;;3.03;;
60819;SDS011;46641;48.904;9.126;2023-04-06T21:47:57;5.20;;;4.70;;
60819;SDS011;46641;48.904;9.126;2023-04-06T21:52:48;4.77;;;4.33;;
60819;SDS011;46641;48.904;9.126;2023-04-06T21:57:38;5.63;;;4.35;;
60819;SDS011;46641;48.904;9.126;2023-04-06T22:02:28;5.37;;;4.83;;
60819;SDS011;46641;48.904;9.126;2023-04-06T22:07:18;5.07;;;4.57;;
60819;SDS011;46641;48.904;9.126;2023-04-06T22:12:09;5.97;;;5.40;;
60819;SDS011;46641;48.904;9.126;2023-04-06T22:16:59;5.53;;;4.87;;
60819;SDS011;46641;48.904;9.126;2023-04-06T22:21:49;5.73;;;4.97;;
60819;SDS011;46641;48.904;9.126;2023-04-06T22:26:40;6.50;;;5.87;;
60819;SDS011;46641;48.904;9.126;2023-04-06T22:31:30;6.17;;;5.57;;
60819;SDS011;46641;48.904;9.126;2023-04-06T22:36:20;6.00;;;5.38;;
60819;SDS011;46641;48.904;9.126;2023-04-06T22:41:10;6.37;;;5.80;;
60819;SDS011;46641;48.904;9.126;2023-04-06T22:46:01;7.05;;;5.40;;
60819;SDS011;46641;48.904;9.126;2023-04-06T22:50:51;6.03;;;5.20;;
60819;SDS011;46641;48.904;9.126;2023-04-06T22:55:41;5.18;;;4.60;;
60819;SDS011;46641;48.904;9.126;2023-04-06T23:00:32;6.00;;;5.43;;
60819;SDS011;46641;48.904;9.126;2023-04-06T23:05:22;6.60;;;5.93;;
60819;SDS011;46641;48.904;9.126;2023-04-06T23:10:13;6.93;;;5.93;;
60819;SDS011;46641;48.904;9.126;2023-04-06T23:15:03;6.73;;;5.80;;
60819;SDS011;46641;48.904;9.126;2023-04-06T23:19:54;5.97;;;5.30;;
60819;SDS011;46641;48.904;9.126;2023-04-06T23:24:45;6.30;;;5.70;;
60819;SDS011;46641;48.904;9.126;2023-04-06T23:29:35;6.23;;;5.63;;
60819;SDS011;46641;48.904;9.126;2023-04-06T23:34:25;7.63;;;6.10;;
60819;SDS011;46641;48.904;9.126;2023-04-06T23:39:16;5.97;;;5.47;;
60819;SDS011;46641;48.904;9.126;2023-04-06T23:44:06;5.55;;;5.03;;
60819;SDS011;46641;48.904;9.126;2023-04-06T23:48:56;7.03;;;5.70;;
60819;SDS011;46641;48.904;9.126;2023-04-06T23:53:46;5.83;;;5.33;;
60819;SDS011;46641;48.904;9.126;2023-04-06T23:58:37;5.83;;;5.30;;
